createdAt,value
2022-10-03T00:00:24.140Z,1017.46
2022-10-03T00:01:24.174Z,1017.45
2022-10-03T00:02:24.152Z,1017.45
2022-10-03T00:03:24.091Z,1017.48
2022-10-03T00:04:24.100Z,1017.47
2022-10-03T00:05:24.068Z,1017.46
2022-10-03T00:06:24.074Z,1017.47
2022-10-03T00:07:24.615Z,1017.45
2022-10-03T00:08:24.028Z,1017.51
2022-10-03T00:09:24.019Z,1017.46
2022-10-03T00:10:24.011Z,1017.46
2022-10-03T00:11:24.042Z,1017.46
2022-10-03T00:12:23.992Z,1017.54
2022-10-03T00:13:24.609Z,1017.56
2022-10-03T00:14:23.956Z,1017.56
2022-10-03T00:15:23.963Z,1017.59
2022-10-03T00:16:23.995Z,1017.62
2022-10-03T00:17:23.922Z,1017.65
2022-10-03T00:18:23.914Z,1017.69
2022-10-03T00:19:23.906Z,1017.64
2022-10-03T00:20:23.898Z,1017.66
2022-10-03T00:21:23.894Z,1017.67
2022-10-03T00:22:23.908Z,1017.69
2022-10-03T00:23:23.864Z,1017.71
2022-10-03T00:24:24.632Z,1017.67
2022-10-03T00:25:23.833Z,1017.68
2022-10-03T00:26:23.843Z,1017.69
2022-10-03T00:27:23.937Z,1017.75
2022-10-03T00:28:23.921Z,1017.79
2022-10-03T00:29:23.787Z,1017.84
2022-10-03T00:30:23.784Z,1017.88
2022-10-03T00:31:23.850Z,1017.92
2022-10-03T00:32:24.644Z,1017.98
2022-10-03T00:33:23.752Z,1017.96
2022-10-03T00:34:23.744Z,1017.96
2022-10-03T00:35:23.725Z,1017.99
2022-10-03T00:36:23.711Z,1018.03
2022-10-03T00:37:23.729Z,1017.98
2022-10-03T00:38:23.689Z,1017.99
2022-10-03T00:39:23.696Z,1017.93
2022-10-03T00:40:23.661Z,1017.97
2022-10-03T00:41:24.625Z,1017.97
2022-10-03T00:42:23.648Z,1017.99
2022-10-03T00:43:23.646Z,1017.98
2022-10-03T00:44:23.627Z,1017.97
2022-10-03T00:45:23.612Z,1017.96
2022-10-03T00:46:23.649Z,1017.94
2022-10-03T00:47:23.585Z,1017.99
2022-10-03T00:48:23.581Z,1018.02
2022-10-03T00:49:23.589Z,1018.03
2022-10-03T00:50:23.553Z,1018.02
2022-10-03T00:51:23.557Z,1018.08
2022-10-03T00:52:23.536Z,1018.04
2022-10-03T00:53:23.528Z,1018.07
2022-10-03T00:54:23.505Z,1018.09
2022-10-03T00:55:23.494Z,1018.06
2022-10-03T00:56:23.490Z,1018.06
2022-10-03T00:57:23.470Z,1018.07
2022-10-03T00:58:23.456Z,1018.09
2022-10-03T00:59:23.562Z,1018.12
2022-10-03T01:00:23.454Z,1018.14
2022-10-03T01:01:23.476Z,1018.13
2022-10-03T01:02:23.525Z,1018.13
2022-10-03T01:03:23.412Z,1018.15
2022-10-03T01:04:23.383Z,1018.13
2022-10-03T01:05:23.393Z,1018.14
2022-10-03T01:06:23.379Z,1018.09
2022-10-03T01:07:23.362Z,1018.15
2022-10-03T01:08:23.389Z,1018.14
2022-10-03T01:09:23.352Z,1018.16
2022-10-03T01:10:23.327Z,1018.17
2022-10-03T01:11:23.303Z,1018.13
2022-10-03T01:12:23.307Z,1018.12
2022-10-03T01:13:23.295Z,1018.13
2022-10-03T01:14:23.308Z,1018.11
2022-10-03T01:15:23.291Z,1018.12
2022-10-03T01:16:23.303Z,1018.09
2022-10-03T01:17:23.245Z,1018.08
2022-10-03T01:18:23.224Z,1018.10
2022-10-03T01:19:23.227Z,1018.07
2022-10-03T01:20:23.222Z,1018.06
2022-10-03T01:21:23.200Z,1018.05
2022-10-03T01:22:23.186Z,1018.07
2022-10-03T01:23:23.170Z,1018.08
2022-10-03T01:24:23.170Z,1018.06
2022-10-03T01:25:23.155Z,1018.07
2022-10-03T01:26:23.146Z,1018.06
2022-10-03T01:27:24.111Z,1018.09
2022-10-03T01:28:23.268Z,1018.10
2022-10-03T01:29:23.099Z,1018.08
2022-10-03T01:30:23.107Z,1018.09
2022-10-03T01:31:23.152Z,1018.14
2022-10-03T01:32:23.073Z,1018.10
2022-10-03T01:33:23.080Z,1018.12
2022-10-03T01:34:23.070Z,1018.12
2022-10-03T01:35:23.056Z,1018.09
2022-10-03T01:36:23.036Z,1018.08
2022-10-03T01:37:23.034Z,1018.06
2022-10-03T01:38:23.013Z,1018.10
2022-10-03T01:39:22.994Z,1018.07
2022-10-03T01:40:23.626Z,1018.04
2022-10-03T01:41:22.972Z,1018.10
2022-10-03T01:42:22.966Z,1018.12
2022-10-03T01:43:22.954Z,1018.07
2022-10-03T01:44:22.939Z,1018.08
2022-10-03T01:45:22.950Z,1018.12
2022-10-03T01:46:22.982Z,1018.10
2022-10-03T01:47:22.921Z,1018.11
2022-10-03T01:48:22.909Z,1018.11
2022-10-03T01:49:22.875Z,1018.11
2022-10-03T01:50:22.868Z,1018.11
2022-10-03T01:51:22.855Z,1018.11
2022-10-03T01:52:22.842Z,1018.11
2022-10-03T01:53:22.850Z,1018.11
2022-10-03T01:54:22.822Z,1018.09
2022-10-03T01:55:22.805Z,1018.10
2022-10-03T01:56:22.798Z,1018.09
2022-10-03T01:57:23.603Z,1018.06
2022-10-03T01:58:23.621Z,1018.08
2022-10-03T01:59:22.791Z,1018.06
2022-10-03T02:00:22.752Z,1018.10
2022-10-03T02:01:22.751Z,1018.10
2022-10-03T02:02:24.695Z,1018.06
2022-10-03T02:03:22.845Z,1018.09
2022-10-03T02:04:22.705Z,1018.10
2022-10-03T02:05:23.129Z,1018.10
2022-10-03T02:06:22.703Z,1018.17
2022-10-03T02:07:23.610Z,1018.16
2022-10-03T02:08:22.663Z,1018.17
2022-10-03T02:09:22.650Z,1018.21
2022-10-03T02:10:22.681Z,1018.19
2022-10-03T02:11:22.645Z,1018.17
2022-10-03T02:12:22.631Z,1018.14
2022-10-03T02:13:22.604Z,1018.20
2022-10-03T02:14:22.604Z,1018.17
2022-10-03T02:15:22.605Z,1018.18
2022-10-03T02:16:22.709Z,1018.20
2022-10-03T02:17:22.562Z,1018.21
2022-10-03T02:18:22.568Z,1018.21
2022-10-03T02:19:22.606Z,1018.22
2022-10-03T02:20:22.526Z,1018.26
2022-10-03T02:21:22.527Z,1018.29
2022-10-03T02:22:22.508Z,1018.30
2022-10-03T02:23:22.499Z,1018.33
2022-10-03T02:24:23.114Z,1018.38
2022-10-03T02:25:22.505Z,1018.33
2022-10-03T02:26:23.148Z,1018.34
2022-10-03T02:27:22.462Z,1018.32
2022-10-03T02:28:23.265Z,1018.36
2022-10-03T02:29:22.448Z,1018.36
2022-10-03T02:30:22.438Z,1018.39
2022-10-03T02:31:22.474Z,1018.37
2022-10-03T02:32:23.129Z,1018.37
2022-10-03T02:33:22.382Z,1018.38
2022-10-03T02:34:22.371Z,1018.37
2022-10-03T02:35:22.391Z,1018.36
2022-10-03T02:36:22.358Z,1018.39
2022-10-03T02:37:22.349Z,1018.41
2022-10-03T02:38:22.334Z,1018.38
2022-10-03T02:39:22.325Z,1018.40
2022-10-03T02:40:22.300Z,1018.42
2022-10-03T02:41:22.298Z,1018.39
2022-10-03T02:42:22.281Z,1018.36
2022-10-03T02:43:23.113Z,1018.32
2022-10-03T02:44:22.270Z,1018.29
2022-10-03T02:45:24.178Z,1018.28
2022-10-03T02:46:22.236Z,1018.25
2022-10-03T02:47:22.231Z,1018.28
2022-10-03T02:48:37.137Z,1018.29
2022-10-03T02:49:23.208Z,1018.31
2022-10-03T02:50:23.107Z,1018.30
2022-10-03T02:51:22.221Z,1018.29
2022-10-03T02:52:22.200Z,1018.27
2022-10-03T02:53:23.115Z,1018.28
2022-10-03T02:54:22.153Z,1018.24
2022-10-03T02:55:22.152Z,1018.23
2022-10-03T02:56:22.131Z,1018.25
2022-10-03T02:57:22.128Z,1018.23
2022-10-03T02:58:22.131Z,1018.24
2022-10-03T02:59:22.099Z,1018.30
2022-10-03T03:00:22.094Z,1018.33
2022-10-03T03:01:22.138Z,1018.31
2022-10-03T03:02:22.129Z,1018.36
2022-10-03T03:03:22.052Z,1018.30
2022-10-03T03:04:22.053Z,1018.31
2022-10-03T03:05:22.024Z,1018.35
2022-10-03T03:06:22.605Z,1018.40
2022-10-03T03:07:22.029Z,1018.35
2022-10-03T03:08:22.615Z,1018.38
2022-10-03T03:09:21.977Z,1018.34
2022-10-03T03:10:21.979Z,1018.35
2022-10-03T03:11:21.960Z,1018.36
2022-10-03T03:12:23.624Z,1018.40
2022-10-03T03:13:21.945Z,1018.34
2022-10-03T03:14:21.929Z,1018.36
2022-10-03T03:15:21.918Z,1018.36
2022-10-03T03:16:21.956Z,1018.38
2022-10-03T03:17:22.622Z,1018.37
2022-10-03T03:18:21.881Z,1018.37
2022-10-03T03:19:21.884Z,1018.39
2022-10-03T03:20:21.856Z,1018.40
2022-10-03T03:21:21.870Z,1018.43
2022-10-03T03:22:21.834Z,1018.45
2022-10-03T03:23:21.866Z,1018.46
2022-10-03T03:24:21.811Z,1018.47
2022-10-03T03:25:21.812Z,1018.49
2022-10-03T03:26:21.803Z,1018.53
2022-10-03T03:27:21.774Z,1018.53
2022-10-03T03:28:23.657Z,1018.53
2022-10-03T03:29:21.775Z,1018.54
2022-10-03T03:30:21.779Z,1018.60
2022-10-03T03:31:21.764Z,1018.54
2022-10-03T03:32:21.730Z,1018.57
2022-10-03T03:33:21.706Z,1018.59
2022-10-03T03:34:21.715Z,1018.56
2022-10-03T03:35:22.614Z,1018.58
2022-10-03T03:36:21.671Z,1018.60
2022-10-03T03:37:21.661Z,1018.54
2022-10-03T03:38:21.657Z,1018.56
2022-10-03T03:39:21.692Z,1018.59
2022-10-03T03:40:21.649Z,1018.63
2022-10-03T03:41:21.625Z,1018.65
2022-10-03T03:42:21.638Z,1018.67
2022-10-03T03:43:21.602Z,1018.71
2022-10-03T03:44:21.589Z,1018.71
2022-10-03T03:45:21.664Z,1018.71
2022-10-03T03:46:21.588Z,1018.75
2022-10-03T03:47:22.108Z,1018.71
2022-10-03T03:48:21.567Z,1018.75
2022-10-03T03:49:22.122Z,1018.70
2022-10-03T03:50:21.521Z,1018.68
2022-10-03T03:51:21.569Z,1018.60
2022-10-03T03:52:21.581Z,1018.66
2022-10-03T03:53:21.487Z,1018.61
2022-10-03T03:54:21.482Z,1018.64
2022-10-03T03:55:21.487Z,1018.66
2022-10-03T03:56:21.453Z,1018.65
2022-10-03T03:57:21.434Z,1018.69
2022-10-03T03:58:21.441Z,1018.69
2022-10-03T03:59:21.418Z,1018.66
2022-10-03T04:00:21.439Z,1018.71
2022-10-03T04:01:21.493Z,1018.63
2022-10-03T04:02:21.462Z,1018.66
2022-10-03T04:03:21.372Z,1018.68
2022-10-03T04:04:21.361Z,1018.65
2022-10-03T04:05:21.356Z,1018.60
2022-10-03T04:06:21.379Z,1018.63
2022-10-03T04:07:22.048Z,1018.63
2022-10-03T04:08:21.322Z,1018.62
2022-10-03T04:09:21.312Z,1018.65
2022-10-03T04:10:22.111Z,1018.63
2022-10-03T04:11:21.318Z,1018.66
2022-10-03T04:12:21.267Z,1018.63
2022-10-03T04:13:21.268Z,1018.67
2022-10-03T04:14:21.259Z,1018.68
2022-10-03T04:15:22.106Z,1018.65
2022-10-03T04:16:22.148Z,1018.65
2022-10-03T04:17:21.232Z,1018.71
2022-10-03T04:18:22.123Z,1018.71
2022-10-03T04:19:21.233Z,1018.77
2022-10-03T04:20:21.174Z,1018.77
2022-10-03T04:21:21.169Z,1018.79
2022-10-03T04:22:21.155Z,1018.81
2022-10-03T04:23:21.156Z,1018.82
2022-10-03T04:24:21.139Z,1018.83
2022-10-03T04:25:21.134Z,1018.84
2022-10-03T04:26:21.138Z,1018.89
2022-10-03T04:27:21.134Z,1018.83
2022-10-03T04:28:21.134Z,1018.85
2022-10-03T04:29:21.612Z,1018.84
2022-10-03T04:30:21.086Z,1018.82
2022-10-03T04:31:21.641Z,1018.84
2022-10-03T04:32:21.047Z,1018.82
2022-10-03T04:33:21.048Z,1018.85
2022-10-03T04:34:21.016Z,1018.76
2022-10-03T04:35:21.015Z,1018.82
2022-10-03T04:36:21.001Z,1018.77
2022-10-03T04:37:20.981Z,1018.79
2022-10-03T04:38:20.975Z,1018.79
2022-10-03T04:39:20.987Z,1018.78
2022-10-03T04:40:20.954Z,1018.78
2022-10-03T04:41:20.954Z,1018.71
2022-10-03T04:42:20.936Z,1018.74
2022-10-03T04:43:20.958Z,1018.75
2022-10-03T04:44:20.934Z,1018.73
2022-10-03T04:45:20.905Z,1018.75
2022-10-03T04:46:20.937Z,1018.79
2022-10-03T04:47:20.889Z,1018.78
2022-10-03T04:48:21.612Z,1018.74
2022-10-03T04:49:20.848Z,1018.75
2022-10-03T04:50:20.839Z,1018.77
2022-10-03T04:51:20.824Z,1018.79
2022-10-03T04:52:20.835Z,1018.81
2022-10-03T04:53:20.815Z,1018.81
2022-10-03T04:54:20.800Z,1018.81
2022-10-03T04:55:20.835Z,1018.81
2022-10-03T04:56:20.777Z,1018.84
2022-10-03T04:57:20.764Z,1018.84
2022-10-03T04:58:20.757Z,1018.86
2022-10-03T04:59:20.761Z,1018.83
2022-10-03T05:00:20.743Z,1018.84
2022-10-03T05:01:20.822Z,1018.84
2022-10-03T05:02:20.880Z,1018.82
2022-10-03T05:03:21.614Z,1018.80
2022-10-03T05:04:20.688Z,1018.83
2022-10-03T05:05:20.686Z,1018.79
2022-10-03T05:06:21.630Z,1018.82
2022-10-03T05:07:20.664Z,1018.82
2022-10-03T05:08:20.683Z,1018.79
2022-10-03T05:09:20.632Z,1018.81
2022-10-03T05:10:20.636Z,1018.85
2022-10-03T05:11:20.641Z,1018.84
2022-10-03T05:12:20.602Z,1018.81
2022-10-03T05:13:20.582Z,1018.85
2022-10-03T05:14:20.592Z,1018.84
2022-10-03T05:15:20.668Z,1018.81
2022-10-03T05:16:20.645Z,1018.84
2022-10-03T05:17:20.572Z,1018.87
2022-10-03T05:18:24.644Z,1018.89
2022-10-03T05:19:21.523Z,1018.88
2022-10-03T05:20:21.118Z,1018.92
2022-10-03T05:21:20.506Z,1018.94
2022-10-03T05:22:20.501Z,1018.92
2022-10-03T05:23:21.133Z,1018.94
2022-10-03T05:24:20.477Z,1018.94
2022-10-03T05:25:20.487Z,1018.97
2022-10-03T05:26:44.186Z,1018.95
2022-10-03T05:27:21.478Z,1019.01
2022-10-03T05:28:20.548Z,1018.96
2022-10-03T05:29:20.422Z,1018.99
2022-10-03T05:30:20.417Z,1019.00
2022-10-03T05:31:20.512Z,1018.99
2022-10-03T05:32:20.378Z,1019.00
2022-10-03T05:33:20.348Z,1018.98
2022-10-03T05:34:20.373Z,1019.00
2022-10-03T05:35:20.367Z,1019.03
2022-10-03T05:36:20.329Z,1019.03
2022-10-03T05:37:20.316Z,1019.05
2022-10-03T05:38:20.292Z,1019.08
2022-10-03T05:39:20.331Z,1019.08
2022-10-03T05:40:20.293Z,1019.10
2022-10-03T05:41:25.158Z,1019.11
2022-10-03T05:42:23.720Z,1019.11
2022-10-03T05:43:21.140Z,1019.10
2022-10-03T05:44:20.234Z,1019.14
2022-10-03T05:45:20.308Z,1019.16
2022-10-03T05:46:21.236Z,1019.14
2022-10-03T05:47:20.230Z,1019.17
2022-10-03T05:48:20.201Z,1019.18
2022-10-03T05:49:20.182Z,1019.20
2022-10-03T05:50:20.176Z,1019.23
2022-10-03T05:51:20.158Z,1019.21
2022-10-03T05:52:20.143Z,1019.24
2022-10-03T05:53:20.183Z,1019.19
2022-10-03T05:54:20.150Z,1019.21
2022-10-03T05:55:20.114Z,1019.24
2022-10-03T05:56:20.104Z,1019.22
2022-10-03T05:57:20.086Z,1019.19
2022-10-03T05:58:20.084Z,1019.22
2022-10-03T05:59:20.170Z,1019.18
2022-10-03T06:00:20.070Z,1019.21
2022-10-03T06:01:20.039Z,1019.26
2022-10-03T06:02:20.776Z,1019.21
2022-10-03T06:03:20.111Z,1019.27
2022-10-03T06:04:20.027Z,1019.23
2022-10-03T06:05:19.997Z,1019.21
2022-10-03T06:06:20.053Z,1019.25
2022-10-03T06:07:20.038Z,1019.23
2022-10-03T06:08:20.001Z,1019.26
2022-10-03T06:09:19.953Z,1019.24
2022-10-03T06:10:19.966Z,1019.26
2022-10-03T06:11:19.932Z,1019.25
2022-10-03T06:12:19.999Z,1019.25
2022-10-03T06:13:19.932Z,1019.25
2022-10-03T06:14:19.912Z,1019.25
2022-10-03T06:15:19.897Z,1019.29
2022-10-03T06:16:19.975Z,1019.30
2022-10-03T06:17:19.920Z,1019.30
2022-10-03T06:18:19.882Z,1019.34
2022-10-03T06:19:19.952Z,1019.33
2022-10-03T06:20:19.842Z,1019.32
2022-10-03T06:21:19.810Z,1019.28
2022-10-03T06:22:19.817Z,1019.35
2022-10-03T06:23:19.810Z,1019.31
2022-10-03T06:24:20.635Z,1019.36
2022-10-03T06:25:19.820Z,1019.32
2022-10-03T06:26:19.812Z,1019.25
2022-10-03T06:27:19.781Z,1019.35
2022-10-03T06:28:19.906Z,1019.30
2022-10-03T06:29:19.734Z,1019.33
2022-10-03T06:30:20.625Z,1019.33
2022-10-03T06:31:19.754Z,1019.36
2022-10-03T06:32:19.722Z,1019.34
2022-10-03T06:33:20.634Z,1019.33
2022-10-03T06:34:19.660Z,1019.33
2022-10-03T06:35:20.638Z,1019.37
2022-10-03T06:36:19.710Z,1019.34
2022-10-03T06:37:19.677Z,1019.35
2022-10-03T06:38:20.625Z,1019.42
2022-10-03T06:39:19.622Z,1019.43
2022-10-03T06:40:20.112Z,1019.39
2022-10-03T06:41:19.627Z,1019.40
2022-10-03T06:42:19.599Z,1019.45
2022-10-03T06:43:20.215Z,1019.45
2022-10-03T06:44:20.169Z,1019.48
2022-10-03T06:45:19.564Z,1019.44
2022-10-03T06:46:19.573Z,1019.45
2022-10-03T06:47:19.551Z,1019.48
2022-10-03T06:48:19.521Z,1019.49
2022-10-03T06:49:19.499Z,1019.50
2022-10-03T06:50:19.499Z,1019.49
2022-10-03T06:51:19.497Z,1019.50
2022-10-03T06:52:19.502Z,1019.52
2022-10-03T06:53:20.182Z,1019.53
2022-10-03T06:54:19.468Z,1019.54
2022-10-03T06:55:19.435Z,1019.55
2022-10-03T06:56:19.413Z,1019.54
2022-10-03T06:57:19.410Z,1019.57
2022-10-03T06:58:19.390Z,1019.53
2022-10-03T06:59:19.381Z,1019.54
2022-10-03T07:00:19.393Z,1019.53
2022-10-03T07:01:20.148Z,1019.49
2022-10-03T07:02:19.451Z,1019.48
2022-10-03T07:03:19.346Z,1019.45
2022-10-03T07:04:19.323Z,1019.42
2022-10-03T07:05:19.335Z,1019.50
2022-10-03T07:06:19.326Z,1019.47
2022-10-03T07:07:19.348Z,1019.48
2022-10-03T07:08:19.638Z,1019.44
2022-10-03T07:09:19.292Z,1019.45
2022-10-03T07:10:19.271Z,1019.48
2022-10-03T07:11:19.276Z,1019.49
2022-10-03T07:12:19.238Z,1019.43
2022-10-03T07:13:19.638Z,1019.43
2022-10-03T07:14:19.210Z,1019.45
2022-10-03T07:15:19.207Z,1019.45
2022-10-03T07:16:26.992Z,1019.44
2022-10-03T07:17:20.296Z,1019.44
2022-10-03T07:18:19.164Z,1019.46
2022-10-03T07:19:19.145Z,1019.45
2022-10-03T07:20:20.130Z,1019.50
2022-10-03T07:21:19.154Z,1019.51
2022-10-03T07:22:19.143Z,1019.56
2022-10-03T07:23:19.263Z,1019.54
2022-10-03T07:24:19.118Z,1019.52
2022-10-03T07:25:19.084Z,1019.52
2022-10-03T07:26:19.078Z,1019.55
2022-10-03T07:27:19.091Z,1019.54
2022-10-03T07:28:20.670Z,1019.53
2022-10-03T07:29:19.080Z,1019.57
2022-10-03T07:30:19.031Z,1019.55
2022-10-03T07:31:19.703Z,1019.58
2022-10-03T07:32:19.016Z,1019.65
2022-10-03T07:33:19.000Z,1019.62
2022-10-03T07:34:18.995Z,1019.65
2022-10-03T07:35:18.992Z,1019.67
2022-10-03T07:36:19.635Z,1019.71
2022-10-03T07:37:18.968Z,1019.65
2022-10-03T07:38:18.960Z,1019.61
2022-10-03T07:39:19.001Z,1019.62
2022-10-03T07:40:18.940Z,1019.61
2022-10-03T07:41:18.902Z,1019.64
2022-10-03T07:42:18.897Z,1019.67
2022-10-03T07:43:19.620Z,1019.64
2022-10-03T07:44:18.874Z,1019.70
2022-10-03T07:45:18.870Z,1019.71
2022-10-03T07:46:18.901Z,1019.74
2022-10-03T07:47:18.879Z,1019.75
2022-10-03T07:48:18.844Z,1019.79
2022-10-03T07:49:18.901Z,1019.79
2022-10-03T07:50:18.811Z,1019.84
2022-10-03T07:51:18.810Z,1019.84
2022-10-03T07:52:18.784Z,1019.86
2022-10-03T07:53:18.782Z,1019.83
2022-10-03T07:54:18.753Z,1019.87
2022-10-03T07:55:18.784Z,1019.88
2022-10-03T07:56:18.734Z,1019.92
2022-10-03T07:57:18.727Z,1019.91
2022-10-03T07:58:18.718Z,1019.89
2022-10-03T07:59:19.612Z,1019.93
2022-10-03T08:00:18.702Z,1019.90
2022-10-03T08:01:18.695Z,1019.92
2022-10-03T08:02:18.710Z,1019.93
2022-10-03T08:03:18.753Z,1019.87
2022-10-03T08:04:18.693Z,1019.92
2022-10-03T08:05:18.632Z,1019.90
2022-10-03T08:06:18.674Z,1019.91
2022-10-03T08:07:18.597Z,1019.95
2022-10-03T08:08:18.599Z,1019.93
2022-10-03T08:09:18.600Z,1019.91
2022-10-03T08:10:20.133Z,1019.95
2022-10-03T08:11:18.764Z,1019.92
2022-10-03T08:12:18.609Z,1019.88
2022-10-03T08:13:18.590Z,1019.86
2022-10-03T08:14:18.537Z,1019.92
2022-10-03T08:15:18.513Z,1019.93
2022-10-03T08:16:18.611Z,1019.93
2022-10-03T08:17:18.499Z,1019.93
2022-10-03T08:18:18.479Z,1019.92
2022-10-03T08:19:18.521Z,1019.90
2022-10-03T08:20:18.480Z,1019.90
2022-10-03T08:21:18.436Z,1019.88
2022-10-03T08:22:18.443Z,1019.92
2022-10-03T08:23:18.482Z,1019.92
2022-10-03T08:24:18.427Z,1019.92
2022-10-03T08:25:18.417Z,1019.94
2022-10-03T08:26:18.382Z,1019.95
2022-10-03T08:27:18.405Z,1019.92
2022-10-03T08:28:18.465Z,1019.96
2022-10-03T08:29:18.370Z,1019.94
2022-10-03T08:30:18.359Z,1019.92
2022-10-03T08:31:18.389Z,1019.93
2022-10-03T08:32:18.328Z,1019.93
2022-10-03T08:33:18.345Z,1019.94
2022-10-03T08:34:18.309Z,1019.92
2022-10-03T08:35:18.304Z,1019.96
2022-10-03T08:36:18.288Z,1019.97
2022-10-03T08:37:18.302Z,1019.93
2022-10-03T08:38:18.271Z,1019.97
2022-10-03T08:39:19.122Z,1019.96
2022-10-03T08:40:18.241Z,1020.01
2022-10-03T08:41:18.227Z,1020.01
2022-10-03T08:42:18.208Z,1020.03
2022-10-03T08:43:18.246Z,1020.01
2022-10-03T08:44:18.187Z,1020.03
2022-10-03T08:45:19.122Z,1020.05
2022-10-03T08:46:18.218Z,1020.05
2022-10-03T08:47:18.181Z,1020.03
2022-10-03T08:48:18.147Z,1020.05
2022-10-03T08:49:18.178Z,1020.02
2022-10-03T08:50:21.113Z,1020.03
2022-10-03T08:51:18.115Z,1020.06
2022-10-03T08:52:18.135Z,1020.06
2022-10-03T08:53:18.096Z,1020.06
2022-10-03T08:54:18.077Z,1020.09
2022-10-03T08:55:18.088Z,1020.10
2022-10-03T08:56:18.057Z,1020.13
2022-10-03T08:57:18.073Z,1020.08
2022-10-03T08:58:18.043Z,1020.09
2022-10-03T08:59:18.043Z,1020.03
2022-10-03T09:00:18.024Z,1020.04
2022-10-03T09:01:18.097Z,1020.02
2022-10-03T09:02:18.180Z,1020.03
2022-10-03T09:03:33.458Z,1020.04
2022-10-03T09:04:18.961Z,1020.07
2022-10-03T09:05:17.961Z,1020.05
2022-10-03T09:06:17.963Z,1020.08
2022-10-03T09:07:19.437Z,1020.06
2022-10-03T09:08:17.962Z,1020.04
2022-10-03T09:09:17.936Z,1020.05
2022-10-03T09:10:18.680Z,1020.03
2022-10-03T09:11:17.884Z,1020.02
2022-10-03T09:12:17.885Z,1020.04
2022-10-03T09:13:17.858Z,1020.06
2022-10-03T09:14:17.871Z,1020.11
2022-10-03T09:15:17.866Z,1020.07
2022-10-03T09:16:18.882Z,1020.08
2022-10-03T09:17:17.831Z,1020.07
2022-10-03T09:18:17.810Z,1020.05
2022-10-03T09:19:17.818Z,1020.00
2022-10-03T09:20:17.840Z,1020.04
2022-10-03T09:21:17.783Z,1020.03
2022-10-03T09:22:17.762Z,1020.01
2022-10-03T09:23:17.751Z,1020.02
2022-10-03T09:24:17.746Z,1020.01
2022-10-03T09:25:17.771Z,1020.01
2022-10-03T09:26:17.724Z,1019.98
2022-10-03T09:27:17.706Z,1019.96
2022-10-03T09:28:19.203Z,1019.97
2022-10-03T09:29:18.614Z,1019.98
2022-10-03T09:30:17.789Z,1019.99
2022-10-03T09:31:17.775Z,1020.00
2022-10-03T09:32:17.648Z,1020.00
2022-10-03T09:33:17.663Z,1020.00
2022-10-03T09:34:17.633Z,1020.04
2022-10-03T09:35:17.665Z,1019.97
2022-10-03T09:36:17.615Z,1020.00
2022-10-03T09:37:17.597Z,1020.04
2022-10-03T09:38:17.651Z,1020.00
2022-10-03T09:39:18.119Z,1019.98
2022-10-03T09:40:17.579Z,1020.00
2022-10-03T09:41:17.562Z,1019.96
2022-10-03T09:42:17.530Z,1019.95
2022-10-03T09:43:17.571Z,1019.92
2022-10-03T09:44:17.543Z,1019.90
2022-10-03T09:45:17.539Z,1019.96
2022-10-03T09:46:17.543Z,1019.93
2022-10-03T09:47:17.616Z,1019.93
2022-10-03T09:48:17.516Z,1019.91
2022-10-03T09:49:17.453Z,1019.94
2022-10-03T09:50:17.464Z,1019.93
2022-10-03T09:51:17.441Z,1019.93
2022-10-03T09:52:17.418Z,1019.91
2022-10-03T09:53:18.132Z,1019.95
2022-10-03T09:54:17.418Z,1019.96
2022-10-03T09:55:17.386Z,1019.95
2022-10-03T09:56:17.378Z,1019.95
2022-10-03T09:57:20.855Z,1019.92
2022-10-03T09:58:18.348Z,1019.89
2022-10-03T09:59:17.363Z,1019.85
2022-10-03T10:00:17.389Z,1019.84
2022-10-03T10:01:17.411Z,1019.86
2022-10-03T10:02:17.320Z,1019.78
2022-10-03T10:03:17.319Z,1019.76
2022-10-03T10:04:28.268Z,1019.78
2022-10-03T10:05:18.293Z,1019.77
2022-10-03T10:06:19.594Z,1019.77
2022-10-03T10:07:18.206Z,1019.73
2022-10-03T10:08:17.252Z,1019.74
2022-10-03T10:09:17.238Z,1019.70
2022-10-03T10:10:17.209Z,1019.71
2022-10-03T10:11:17.207Z,1019.71
2022-10-03T10:12:17.204Z,1019.71
2022-10-03T10:13:17.208Z,1019.72
2022-10-03T10:14:17.251Z,1019.65
2022-10-03T10:15:17.175Z,1019.67
2022-10-03T10:16:17.167Z,1019.68
2022-10-03T10:17:17.192Z,1019.68
2022-10-03T10:18:17.140Z,1019.64
2022-10-03T10:19:17.648Z,1019.72
2022-10-03T10:20:17.149Z,1019.58
2022-10-03T10:21:18.672Z,1019.55
2022-10-03T10:22:17.134Z,1019.61
2022-10-03T10:23:17.088Z,1019.61
2022-10-03T10:24:17.057Z,1019.61
2022-10-03T10:25:17.108Z,1019.61
2022-10-03T10:26:17.056Z,1019.61
2022-10-03T10:27:17.033Z,1019.59
2022-10-03T10:28:17.148Z,1019.58
2022-10-03T10:29:17.004Z,1019.61
2022-10-03T10:30:16.991Z,1019.63
2022-10-03T10:31:17.044Z,1019.64
2022-10-03T10:32:21.391Z,1019.64
2022-10-03T10:33:16.963Z,1019.67
2022-10-03T10:34:16.949Z,1019.69
2022-10-03T10:35:17.661Z,1019.73
2022-10-03T10:36:16.942Z,1019.77
2022-10-03T10:37:16.936Z,1019.76
2022-10-03T10:38:16.903Z,1019.79
2022-10-03T10:39:16.952Z,1019.76
2022-10-03T10:40:16.881Z,1019.73
2022-10-03T10:41:16.905Z,1019.72
2022-10-03T10:42:16.872Z,1019.73
2022-10-03T10:43:16.862Z,1019.75
2022-10-03T10:44:16.828Z,1019.71
2022-10-03T10:45:16.818Z,1019.69
2022-10-03T10:46:16.849Z,1019.67
2022-10-03T10:47:16.822Z,1019.64
2022-10-03T10:48:17.618Z,1019.62
2022-10-03T10:49:16.816Z,1019.61
2022-10-03T10:50:17.637Z,1019.64
2022-10-03T10:51:17.648Z,1019.60
2022-10-03T10:52:16.765Z,1019.61
2022-10-03T10:53:17.644Z,1019.63
2022-10-03T10:54:16.722Z,1019.67
2022-10-03T10:55:16.724Z,1019.61
2022-10-03T10:56:16.725Z,1019.66
2022-10-03T10:57:16.687Z,1019.64
2022-10-03T10:58:17.643Z,1019.66
2022-10-03T10:59:16.666Z,1019.68
2022-10-03T11:00:16.696Z,1019.64
2022-10-03T11:01:16.700Z,1019.63
2022-10-03T11:02:16.632Z,1019.59
2022-10-03T11:03:18.150Z,1019.54
2022-10-03T11:04:16.677Z,1019.55
2022-10-03T11:05:16.632Z,1019.57
2022-10-03T11:06:17.121Z,1019.53
2022-10-03T11:07:16.609Z,1019.52
2022-10-03T11:08:16.562Z,1019.53
2022-10-03T11:09:16.609Z,1019.56
2022-10-03T11:10:16.567Z,1019.53
2022-10-03T11:11:16.539Z,1019.51
2022-10-03T11:12:16.519Z,1019.56
2022-10-03T11:13:16.545Z,1019.48
2022-10-03T11:14:16.510Z,1019.49
2022-10-03T11:15:16.514Z,1019.46
2022-10-03T11:16:16.554Z,1019.47
2022-10-03T11:17:16.488Z,1019.41
2022-10-03T11:18:16.453Z,1019.46
2022-10-03T11:19:16.461Z,1019.43
2022-10-03T11:20:16.471Z,1019.39
2022-10-03T11:21:16.422Z,1019.41
2022-10-03T11:22:16.472Z,1019.40
2022-10-03T11:23:16.413Z,1019.41
2022-10-03T11:24:16.431Z,1019.41
2022-10-03T11:25:16.392Z,1019.36
2022-10-03T11:26:16.374Z,1019.30
2022-10-03T11:27:16.347Z,1019.30
2022-10-03T11:28:18.854Z,1019.31
2022-10-03T11:29:16.384Z,1019.37
2022-10-03T11:30:16.323Z,1019.33
2022-10-03T11:31:17.175Z,1019.32
2022-10-03T11:32:16.295Z,1019.28
2022-10-03T11:33:16.315Z,1019.26
2022-10-03T11:34:16.302Z,1019.29
2022-10-03T11:35:16.283Z,1019.31
2022-10-03T11:36:16.257Z,1019.29
2022-10-03T11:37:16.267Z,1019.31
2022-10-03T11:38:16.258Z,1019.37
2022-10-03T11:39:16.261Z,1019.29
2022-10-03T11:40:16.239Z,1019.35
2022-10-03T11:41:16.191Z,1019.30
2022-10-03T11:42:16.213Z,1019.33
2022-10-03T11:43:16.221Z,1019.34
2022-10-03T11:44:16.183Z,1019.40
2022-10-03T11:45:16.159Z,1019.37
2022-10-03T11:46:16.187Z,1019.35
2022-10-03T11:47:16.202Z,1019.37
2022-10-03T11:48:16.152Z,1019.37
2022-10-03T11:49:16.141Z,1019.33
2022-10-03T11:50:16.116Z,1019.35
2022-10-03T11:51:16.092Z,1019.29
2022-10-03T11:52:16.137Z,1019.26
2022-10-03T11:53:16.091Z,1019.29
2022-10-03T11:54:30.614Z,1019.29
2022-10-03T11:55:17.076Z,1019.26
2022-10-03T11:56:18.677Z,1019.25
2022-10-03T11:57:16.654Z,1019.21
2022-10-03T11:58:16.026Z,1019.23
2022-10-03T11:59:15.999Z,1019.25
2022-10-03T12:00:16.001Z,1019.24
2022-10-03T12:01:16.042Z,1019.19
2022-10-03T12:02:16.675Z,1019.13
2022-10-03T12:03:16.124Z,1019.17
2022-10-03T12:04:15.946Z,1019.14
2022-10-03T12:05:15.941Z,1019.16